createdAt,value
2016-11-16T00:00:42.191Z,87.57
2016-11-16T00:01:42.149Z,86.72
2016-11-16T00:02:42.106Z,87.29
2016-11-16T00:03:42.088Z,87.19
2016-11-16T00:04:41.727Z,86.82
2016-11-16T00:05:41.993Z,86.91
2016-11-16T00:06:41.955Z,86.72
2016-11-16T00:07:41.643Z,86.72
2016-11-16T00:08:41.875Z,86.82
2016-11-16T00:09:41.837Z,86.72
2016-11-16T00:10:41.496Z,86.91
2016-11-16T00:11:41.760Z,86.72
2016-11-16T00:12:41.720Z,86.72
2016-11-16T00:13:41.376Z,86.82
2016-11-16T00:14:41.640Z,87.29
2016-11-16T00:15:41.600Z,86.91
2016-11-16T00:16:41.565Z,86.63
2016-11-16T00:17:41.222Z,86.91
2016-11-16T00:18:41.484Z,86.91
2016-11-16T00:19:41.143Z,86.82
2016-11-16T00:20:41.404Z,87.01
2016-11-16T00:21:41.367Z,87.01
2016-11-16T00:22:41.026Z,87.01
2016-11-16T00:23:40.984Z,86.82
2016-11-16T00:24:41.250Z,86.91
2016-11-16T00:25:41.213Z,87.01
2016-11-16T00:26:40.869Z,86.91
2016-11-16T00:27:40.831Z,86.91
2016-11-16T00:28:41.094Z,87.1
2016-11-16T00:29:41.057Z,86.34
2016-11-16T00:30:41.015Z,86.91
2016-11-16T00:31:40.974Z,87.01
2016-11-16T00:32:40.935Z,86.82
2016-11-16T00:33:40.897Z,87.01
2016-11-16T00:34:40.857Z,86.82
2016-11-16T00:35:40.820Z,87.19
2016-11-16T00:36:40.781Z,86.82
2016-11-16T00:37:40.743Z,87.19
2016-11-16T00:38:40.701Z,87.01
2016-11-16T00:39:40.663Z,86.34
2016-11-16T00:40:40.625Z,86.63
2016-11-16T00:41:40.283Z,86.63
2016-11-16T00:42:40.574Z,86.53
2016-11-16T00:43:40.505Z,86.53
2016-11-16T00:44:40.469Z,86.53
2016-11-16T00:45:40.125Z,86.15
2016-11-16T00:46:40.387Z,86.05
2016-11-16T00:47:40.350Z,86.24
2016-11-16T00:48:40.009Z,86.05
2016-11-16T00:49:40.270Z,86.34
2016-11-16T00:50:40.230Z,86.05
2016-11-16T00:51:40.194Z,86.34
2016-11-16T00:52:40.153Z,86.15
2016-11-16T00:53:40.115Z,86.15
2016-11-16T00:54:39.778Z,86.15
2016-11-16T00:55:40.035Z,86.15
2016-11-16T00:56:39.996Z,86.63
2016-11-16T00:57:39.673Z,86.72
2016-11-16T00:58:39.918Z,86.53
2016-11-16T00:59:39.888Z,86.34
2016-11-16T01:00:39.538Z,86.53
2016-11-16T01:01:39.799Z,86.34
2016-11-16T01:02:39.462Z,87.1
2016-11-16T01:03:39.720Z,86.82
2016-11-16T01:04:39.381Z,86.72
2016-11-16T01:05:39.642Z,87.01
2016-11-16T01:06:39.606Z,86.91
2016-11-16T01:07:39.276Z,87.01
2016-11-16T01:08:39.225Z,87.19
2016-11-16T01:09:39.490Z,87.1
2016-11-16T01:10:39.446Z,86.91
2016-11-16T01:11:39.408Z,86.91
2016-11-16T01:12:39.372Z,86.91
2016-11-16T01:13:39.330Z,87.01
2016-11-16T01:14:39.292Z,87.01
2016-11-16T01:15:39.279Z,87.01
2016-11-16T01:16:39.215Z,87.01
2016-11-16T01:17:39.174Z,86.82
2016-11-16T01:18:39.133Z,87.1
2016-11-16T01:19:39.094Z,86.82
2016-11-16T01:20:39.057Z,86.91
2016-11-16T01:21:39.013Z,86.91
2016-11-16T01:22:38.979Z,86.82
2016-11-16T01:23:38.939Z,86.91
2016-11-16T01:24:38.899Z,86.34
2016-11-16T01:25:38.863Z,86.72
2016-11-16T01:26:38.520Z,86.72
2016-11-16T01:27:38.780Z,86.63
2016-11-16T01:28:38.744Z,86.63
2016-11-16T01:29:38.732Z,86.43
2016-11-16T01:30:38.660Z,86.24
2016-11-16T01:31:38.325Z,86.63
2016-11-16T01:32:38.592Z,86.34
2016-11-16T01:33:38.547Z,86.53
2016-11-16T01:34:38.515Z,86.34
2016-11-16T01:35:38.466Z,86.53
2016-11-16T01:36:38.427Z,86.63
2016-11-16T01:37:38.389Z,86.24
2016-11-16T01:38:38.354Z,85.86
2016-11-16T01:39:38.310Z,86.05
2016-11-16T01:40:37.973Z,86.15
2016-11-16T01:41:37.931Z,86.24
2016-11-16T01:42:37.892Z,85.86
2016-11-16T01:43:37.851Z,86.05
2016-11-16T01:44:37.814Z,86.15
2016-11-16T01:45:38.080Z,85.86
2016-11-16T01:46:38.036Z,85.86
2016-11-16T01:47:37.696Z,85.86
2016-11-16T01:48:37.957Z,85.96
2016-11-16T01:49:37.618Z,85.96
2016-11-16T01:50:37.881Z,86.05
2016-11-16T01:51:37.844Z,85.68
2016-11-16T01:52:37.800Z,85.68
2016-11-16T01:53:37.460Z,86.05
2016-11-16T01:54:37.724Z,85.77
2016-11-16T01:55:37.684Z,85.68
2016-11-16T01:56:37.345Z,85.68
2016-11-16T01:57:37.603Z,85.58
2016-11-16T01:58:37.571Z,85.86
2016-11-16T01:59:37.529Z,85.68
2016-11-16T02:00:37.491Z,85.68
2016-11-16T02:01:37.450Z,85.86
2016-11-16T02:02:37.413Z,85.68
2016-11-16T02:03:37.370Z,85.96
2016-11-16T02:04:37.335Z,85.72
2016-11-16T02:05:37.296Z,85.68
2016-11-16T02:06:37.255Z,85.77
2016-11-16T02:07:37.218Z,86.15
2016-11-16T02:08:37.179Z,86.15
2016-11-16T02:09:37.136Z,85.86
2016-11-16T02:10:37.100Z,86.53
2016-11-16T02:11:36.756Z,85.96
2016-11-16T02:12:36.718Z,86.43
2016-11-16T02:13:36.984Z,86.53
2016-11-16T02:14:36.945Z,86.15
2016-11-16T02:15:36.906Z,86.34
2016-11-16T02:16:36.865Z,86.15
2016-11-16T02:17:36.824Z,86.05
2016-11-16T02:18:36.785Z,86.43
2016-11-16T02:19:36.747Z,86.15
2016-11-16T02:20:36.706Z,85.77
2016-11-16T02:21:36.681Z,85.68
2016-11-16T02:22:36.629Z,85.2
2016-11-16T02:23:36.591Z,85.49
2016-11-16T02:24:36.248Z,85.58
2016-11-16T02:25:36.210Z,85.01
2016-11-16T02:26:36.475Z,84.72
2016-11-16T02:27:36.434Z,85.01
2016-11-16T02:28:36.395Z,84.82
2016-11-16T02:29:36.356Z,85.11
2016-11-16T02:30:36.322Z,84.82
2016-11-16T02:31:36.275Z,85.77
2016-11-16T02:32:36.239Z,85.58
2016-11-16T02:33:36.205Z,86.05
2016-11-16T02:34:35.858Z,85.96
2016-11-16T02:35:36.120Z,85.96
2016-11-16T02:36:36.080Z,86.24
2016-11-16T02:37:36.043Z,86.43
2016-11-16T02:38:36.004Z,85.96
2016-11-16T02:39:35.969Z,86.24
2016-11-16T02:40:35.926Z,86.53
2016-11-16T02:41:35.884Z,86.34
2016-11-16T02:42:35.545Z,86.82
2016-11-16T02:43:35.805Z,86.82
2016-11-16T02:44:35.767Z,87.1
2016-11-16T02:45:35.727Z,87.19
2016-11-16T02:46:35.692Z,87.29
2016-11-16T02:47:35.347Z,87.67
2016-11-16T02:48:35.610Z,87.67
2016-11-16T02:49:35.268Z,87.86
2016-11-16T02:50:35.532Z,87.67
2016-11-16T02:51:35.495Z,87.95
2016-11-16T02:52:35.155Z,88.34
2016-11-16T02:53:35.111Z,88.43
2016-11-16T02:54:35.376Z,88.34
2016-11-16T02:55:35.336Z,88.05
2016-11-16T02:56:35.298Z,88.34
2016-11-16T02:57:35.256Z,88.43
2016-11-16T02:58:34.915Z,88.43
2016-11-16T02:59:35.180Z,88.62
2016-11-16T03:00:35.142Z,88.62
2016-11-16T03:01:35.102Z,88.62
2016-11-16T03:02:35.066Z,89.28
2016-11-16T03:03:34.721Z,88.9
2016-11-16T03:04:34.985Z,88.9
2016-11-16T03:05:34.944Z,88.9
2016-11-16T03:06:34.908Z,88.71
2016-11-16T03:07:34.865Z,88.53
2016-11-16T03:08:34.828Z,88.71
2016-11-16T03:09:34.787Z,88.43
2016-11-16T03:10:34.751Z,88.05
2016-11-16T03:11:34.403Z,88.15
2016-11-16T03:12:34.368Z,88.43
2016-11-16T03:13:34.627Z,87.95
2016-11-16T03:14:34.590Z,87.67
2016-11-16T03:15:34.546Z,87.48
2016-11-16T03:16:34.508Z,87.48
2016-11-16T03:17:34.474Z,86.91
2016-11-16T03:18:34.431Z,87.1
2016-11-16T03:19:34.393Z,86.72
2016-11-16T03:20:34.353Z,86.24
2016-11-16T03:21:34.316Z,87.01
2016-11-16T03:22:34.275Z,87.01
2016-11-16T03:23:34.235Z,86.91
2016-11-16T03:24:34.227Z,87.19
2016-11-16T03:25:34.154Z,87.57
2016-11-16T03:26:34.118Z,87.57
2016-11-16T03:27:34.082Z,87.67
2016-11-16T03:28:34.039Z,87.67
2016-11-16T03:29:33.999Z,88.34
2016-11-16T03:30:33.961Z,88.43
2016-11-16T03:31:33.959Z,88.24
2016-11-16T03:32:33.884Z,88.05
2016-11-16T03:33:33.842Z,88.05
2016-11-16T03:34:33.804Z,88.24
2016-11-16T03:35:33.464Z,88.15
2016-11-16T03:36:33.724Z,88.24
2016-11-16T03:37:33.688Z,87.95
2016-11-16T03:38:33.347Z,87.67
2016-11-16T03:39:33.608Z,87.76
2016-11-16T03:40:33.565Z,87.67
2016-11-16T03:41:33.530Z,87.1
2016-11-16T03:42:33.498Z,87.38
2016-11-16T03:43:33.450Z,87.57
2016-11-16T03:44:33.410Z,87.86
2016-11-16T03:45:33.375Z,87.67
2016-11-16T03:46:33.335Z,87.76
2016-11-16T03:47:33.296Z,87.67
2016-11-16T03:48:33.255Z,88.43
2016-11-16T03:49:32.912Z,88.43
2016-11-16T03:50:33.180Z,87.86
2016-11-16T03:51:33.141Z,88.43
2016-11-16T03:52:33.098Z,88.34
2016-11-16T03:53:33.062Z,88.24
2016-11-16T03:54:33.021Z,88.34
2016-11-16T03:55:32.982Z,88.24
2016-11-16T03:56:32.941Z,88.15
2016-11-16T03:57:32.601Z,88.05
2016-11-16T03:58:32.862Z,88.62
2016-11-16T03:59:32.825Z,88.62
2016-11-16T04:00:32.788Z,88.15
2016-11-16T04:01:32.749Z,88.05
2016-11-16T04:02:32.709Z,88.24
2016-11-16T04:03:32.667Z,88.15
2016-11-16T04:04:32.632Z,88.05
2016-11-16T04:05:32.587Z,88.05
2016-11-16T04:06:32.550Z,88.05
2016-11-16T04:07:32.514Z,87.95
2016-11-16T04:08:32.472Z,88.24
2016-11-16T04:09:32.135Z,88.15
2016-11-16T04:10:32.392Z,88.62
2016-11-16T04:11:32.355Z,88.34
2016-11-16T04:12:32.316Z,88.24
2016-11-16T04:13:32.276Z,88.67
2016-11-16T04:14:32.236Z,88.28
2016-11-16T04:15:32.201Z,88.19
2016-11-16T04:16:31.856Z,87.62
2016-11-16T04:17:32.124Z,87.67
2016-11-16T04:18:32.082Z,87.67
2016-11-16T04:19:32.049Z,88.34
2016-11-16T04:20:32.004Z,88.43
2016-11-16T04:21:31.962Z,88.19
2016-11-16T04:22:31.927Z,88.15
2016-11-16T04:23:31.886Z,88.53
2016-11-16T04:24:31.848Z,88.62
2016-11-16T04:25:31.505Z,88.53
2016-11-16T04:26:31.767Z,88.62
2016-11-16T04:27:31.730Z,88.71
2016-11-16T04:28:31.691Z,88.81
2016-11-16T04:29:31.654Z,88.9
2016-11-16T04:30:31.610Z,88.71
2016-11-16T04:31:31.577Z,88.53
2016-11-16T04:32:31.537Z,88.43
2016-11-16T04:33:31.499Z,88.53
2016-11-16T04:34:31.456Z,88.05
2016-11-16T04:35:31.428Z,88.34
2016-11-16T04:36:31.079Z,88.43
2016-11-16T04:37:31.342Z,87.76
2016-11-16T04:38:31.302Z,87.67
2016-11-16T04:39:31.261Z,88.24
2016-11-16T04:40:31.224Z,87.38
2016-11-16T04:41:31.184Z,87.67
2016-11-16T04:42:31.143Z,87.67
2016-11-16T04:43:31.107Z,87.67
2016-11-16T04:44:31.069Z,87.86
2016-11-16T04:45:31.026Z,88.05
2016-11-16T04:46:30.685Z,87.86
2016-11-16T04:47:30.949Z,88.15
2016-11-16T04:48:30.909Z,88.43
2016-11-16T04:49:30.869Z,88.43
2016-11-16T04:50:30.831Z,88.24
2016-11-16T04:51:30.791Z,88.34
2016-11-16T04:52:30.754Z,88.15
2016-11-16T04:53:30.717Z,88.15
2016-11-16T04:54:30.679Z,87.95
2016-11-16T04:55:30.637Z,88.34
2016-11-16T04:56:30.599Z,88.43
2016-11-16T04:57:30.557Z,88.34
2016-11-16T04:58:30.519Z,87.67
2016-11-16T04:59:30.478Z,87.67
2016-11-16T05:00:30.442Z,87.76
2016-11-16T05:01:30.399Z,87.48
2016-11-16T05:02:30.362Z,87.57
2016-11-16T05:03:30.324Z,87.57
2016-11-16T05:04:30.282Z,87.48
2016-11-16T05:05:30.241Z,87.48
2016-11-16T05:06:30.203Z,87.29
2016-11-16T05:07:29.863Z,87.19
2016-11-16T05:08:30.126Z,87.19
2016-11-16T05:09:30.089Z,87.29
2016-11-16T05:10:30.046Z,87.38
2016-11-16T05:11:29.708Z,87.86
2016-11-16T05:12:29.967Z,87.57
2016-11-16T05:13:29.929Z,88.15
2016-11-16T05:14:29.898Z,88.24
2016-11-16T05:15:29.853Z,88.43
2016-11-16T05:16:29.811Z,88.24
2016-11-16T05:17:29.771Z,88.24
2016-11-16T05:18:29.437Z,88.43
2016-11-16T05:19:29.696Z,88.34
2016-11-16T05:20:29.659Z,87.67
2016-11-16T05:21:29.619Z,87.86
2016-11-16T05:22:29.577Z,87.86
2016-11-16T05:23:29.537Z,87.57
2016-11-16T05:24:29.195Z,87.48
2016-11-16T05:25:29.461Z,88.43
2016-11-16T05:26:29.419Z,88.34
2016-11-16T05:27:29.381Z,87.86
2016-11-16T05:28:29.341Z,88.53
2016-11-16T05:29:29.304Z,88.53
2016-11-16T05:30:29.263Z,88.81
2016-11-16T05:31:29.226Z,89
2016-11-16T05:32:28.885Z,89.19
2016-11-16T05:33:29.148Z,89.19
2016-11-16T05:34:28.804Z,89
2016-11-16T05:35:29.067Z,88.81
2016-11-16T05:36:29.028Z,89.57
2016-11-16T05:37:28.988Z,89.38
2016-11-16T05:38:28.952Z,89.38
2016-11-16T05:39:28.913Z,89.47
2016-11-16T05:40:28.870Z,89.19
2016-11-16T05:41:28.529Z,89.38
2016-11-16T05:42:28.792Z,89.47
2016-11-16T05:43:28.752Z,89.47
2016-11-16T05:44:28.413Z,89.19
2016-11-16T05:45:28.677Z,89.38
2016-11-16T05:46:28.643Z,89.57
2016-11-16T05:47:28.599Z,89.19
2016-11-16T05:48:28.562Z,89.47
2016-11-16T05:49:28.518Z,89.47
2016-11-16T05:50:28.480Z,89.67
2016-11-16T05:51:28.441Z,89.67
2016-11-16T05:52:28.399Z,89.57
2016-11-16T05:53:28.362Z,89.47
2016-11-16T05:54:28.323Z,89.19
2016-11-16T05:55:28.286Z,89.47
2016-11-16T05:56:28.245Z,89.47
2016-11-16T05:57:27.908Z,89.47
2016-11-16T05:58:28.166Z,89.28
2016-11-16T05:59:28.126Z,89.47
2016-11-16T06:00:28.089Z,88.81
2016-11-16T06:01:28.054Z,88.81
2016-11-16T06:02:28.011Z,88.62
2016-11-16T06:03:27.971Z,88.81
2016-11-16T06:04:27.931Z,89.09
2016-11-16T06:05:27.891Z,89.47
2016-11-16T06:06:27.552Z,89.28
2016-11-16T06:07:27.853Z,89.67
2016-11-16T06:08:27.773Z,90.05
2016-11-16T06:09:27.437Z,90.14
2016-11-16T06:10:27.695Z,90.05
2016-11-16T06:11:27.663Z,90.52
2016-11-16T06:12:27.624Z,90.42
2016-11-16T06:13:27.579Z,90.23
2016-11-16T06:14:27.541Z,90.61
2016-11-16T06:15:27.505Z,90.8
2016-11-16T06:16:27.462Z,90.52
2016-11-16T06:17:27.427Z,90.61
2016-11-16T06:18:27.393Z,90.99
2016-11-16T06:19:27.344Z,90.8
2016-11-16T06:20:27.307Z,90.61
2016-11-16T06:21:27.268Z,90.99
2016-11-16T06:22:27.223Z,91.28
2016-11-16T06:23:27.187Z,91.19
2016-11-16T06:24:27.149Z,91.38
2016-11-16T06:25:27.110Z,90.9
2016-11-16T06:26:27.080Z,91.09
2016-11-16T06:27:27.030Z,91.09
2016-11-16T06:28:26.989Z,91.09
2016-11-16T06:29:26.952Z,91.09
2016-11-16T06:30:26.911Z,91.09
2016-11-16T06:31:26.906Z,90.99
2016-11-16T06:32:26.834Z,90.9
2016-11-16T06:33:26.494Z,90.9
2016-11-16T06:34:26.757Z,90.9
2016-11-16T06:35:26.720Z,90.8
2016-11-16T06:36:26.679Z,90.9
2016-11-16T06:37:26.642Z,91.19
2016-11-16T06:38:26.599Z,90.9
2016-11-16T06:39:26.561Z,90.9
2016-11-16T06:40:26.519Z,90.8
2016-11-16T06:41:26.181Z,90.99
2016-11-16T06:42:26.444Z,91.85
2016-11-16T06:43:26.403Z,91.75
2016-11-16T06:44:26.365Z,91.66
2016-11-16T06:45:26.327Z,91.47
2016-11-16T06:46:26.286Z,91.47
2016-11-16T06:47:26.246Z,91.56
2016-11-16T06:48:26.209Z,91.38
2016-11-16T06:49:26.169Z,91.66
2016-11-16T06:50:25.824Z,91.75
2016-11-16T06:51:25.787Z,91.85
2016-11-16T06:52:26.050Z,91.66
2016-11-16T06:53:25.705Z,91.28
2016-11-16T06:54:25.975Z,91.66
2016-11-16T06:55:25.932Z,91.28
2016-11-16T06:56:25.892Z,91.38
2016-11-16T06:57:25.550Z,91.56
2016-11-16T06:58:25.819Z,91.94
2016-11-16T06:59:25.777Z,91.94
2016-11-16T07:00:25.736Z,91.85
2016-11-16T07:01:25.698Z,91.85
2016-11-16T07:02:25.658Z,91.94
2016-11-16T07:03:25.618Z,92.23
2016-11-16T07:04:25.576Z,92.23
2016-11-16T07:05:25.540Z,92.13
2016-11-16T07:06:25.200Z,91.94
2016-11-16T07:07:25.463Z,91.85
2016-11-16T07:08:25.423Z,91.75
2016-11-16T07:09:25.381Z,91.66
2016-11-16T07:10:25.346Z,91.66
2016-11-16T07:11:25.306Z,91.19
2016-11-16T07:12:25.268Z,91.47
2016-11-16T07:13:25.227Z,91.56
2016-11-16T07:14:25.187Z,90.9
2016-11-16T07:15:25.152Z,91.13
2016-11-16T07:16:25.113Z,90.75
2016-11-16T07:17:25.071Z,90.8
2016-11-16T07:18:25.038Z,90.28
2016-11-16T07:19:24.997Z,90
2016-11-16T07:20:24.959Z,89.61
2016-11-16T07:21:24.914Z,89.71
2016-11-16T07:22:24.880Z,89.8
2016-11-16T07:23:24.840Z,89.52
2016-11-16T07:24:24.799Z,90
2016-11-16T07:25:24.759Z,89.52
2016-11-16T07:26:24.720Z,90.09
2016-11-16T07:27:24.689Z,89.42
2016-11-16T07:28:24.640Z,89.04
2016-11-16T07:29:24.605Z,88.76
2016-11-16T07:30:24.563Z,88.47
2016-11-16T07:31:24.525Z,88.28
2016-11-16T07:32:24.488Z,88.19
2016-11-16T07:33:24.446Z,88.19
2016-11-16T07:34:24.107Z,88.28
2016-11-16T07:35:24.369Z,88.28
2016-11-16T07:36:24.332Z,88.28
2016-11-16T07:37:24.293Z,88.47
2016-11-16T07:38:23.950Z,88.47
2016-11-16T07:39:24.214Z,88.47
2016-11-16T07:40:23.877Z,87.62
2016-11-16T07:41:24.134Z,87.34
2016-11-16T07:42:23.797Z,87.43
2016-11-16T07:43:24.059Z,87.43
2016-11-16T07:44:24.021Z,87.34
2016-11-16T07:45:23.982Z,86.76
2016-11-16T07:46:23.640Z,87.24
2016-11-16T07:47:23.904Z,86.95
2016-11-16T07:48:23.865Z,87.24
2016-11-16T07:49:23.826Z,86.95
2016-11-16T07:50:23.488Z,86.99
2016-11-16T07:51:23.446Z,86.86
2016-11-16T07:52:23.710Z,86.95
2016-11-16T07:53:23.674Z,87.05
2016-11-16T07:54:23.637Z,87.24
2016-11-16T07:55:23.291Z,86.76
2016-11-16T07:56:23.558Z,87.14
2016-11-16T07:57:23.216Z,86.57
2016-11-16T07:58:23.482Z,86.57
2016-11-16T07:59:23.440Z,86.38
2016-11-16T08:00:23.401Z,87.24
2016-11-16T08:01:23.363Z,86.8
2016-11-16T08:02:23.323Z,86.43
2016-11-16T08:03:23.286Z,87.19
2016-11-16T08:04:22.944Z,86.9
2016-11-16T08:05:23.209Z,86.8
2016-11-16T08:06:23.173Z,86.9
2016-11-16T08:07:23.133Z,87.09
2016-11-16T08:08:23.093Z,87.47
2016-11-16T08:09:23.053Z,87.09
2016-11-16T08:10:22.711Z,87.19
2016-11-16T08:11:22.976Z,86.99
2016-11-16T08:12:22.937Z,86.8
2016-11-16T08:13:22.900Z,86.8
2016-11-16T08:14:22.859Z,87.28
2016-11-16T08:15:22.819Z,87.09
2016-11-16T08:16:22.781Z,87.38
2016-11-16T08:17:22.749Z,87.57
2016-11-16T08:18:22.704Z,87.85
2016-11-16T08:19:22.669Z,87.76
2016-11-16T08:20:22.629Z,88.04
2016-11-16T08:21:22.594Z,87.85
2016-11-16T08:22:22.553Z,87.66
2016-11-16T08:23:22.516Z,87.76
2016-11-16T08:24:22.474Z,88.42
2016-11-16T08:25:22.436Z,88.23
2016-11-16T08:26:22.399Z,88.33
2016-11-16T08:27:22.360Z,88.23
2016-11-16T08:28:22.324Z,87.57
2016-11-16T08:29:22.282Z,87.66
2016-11-16T08:30:22.246Z,87.85
2016-11-16T08:31:22.207Z,87.95
2016-11-16T08:32:22.167Z,87.66
2016-11-16T08:33:22.132Z,87.09
2016-11-16T08:34:22.091Z,87.28
2016-11-16T08:35:21.749Z,87.19
2016-11-16T08:36:22.012Z,87.09
2016-11-16T08:37:21.978Z,87.09
2016-11-16T08:38:21.946Z,86.8
2016-11-16T08:39:21.898Z,87.09
2016-11-16T08:40:21.863Z,86.61
2016-11-16T08:41:21.823Z,86.76
2016-11-16T08:42:21.784Z,86.47
2016-11-16T08:43:21.442Z,86.47
2016-11-16T08:44:21.709Z,86.28
2016-11-16T08:45:21.669Z,86.47
2016-11-16T08:46:21.640Z,85.99
2016-11-16T08:47:21.291Z,85.61
2016-11-16T08:48:21.554Z,85.24
2016-11-16T08:49:21.214Z,85.04
2016-11-16T08:50:21.476Z,84.47
2016-11-16T08:51:21.439Z,84.38
2016-11-16T08:52:21.403Z,83.42
2016-11-16T08:53:21.364Z,84.09
2016-11-16T08:54:21.328Z,84.19
2016-11-16T08:55:21.291Z,83.33
2016-11-16T08:56:21.246Z,82.48
2016-11-16T08:57:20.911Z,82.38
2016-11-16T08:58:20.874Z,81.62
2016-11-16T08:59:21.135Z,81.85
2016-11-16T09:00:21.098Z,81.71
2016-11-16T09:01:21.059Z,82.04
2016-11-16T09:02:20.720Z,81.56
2016-11-16T09:03:20.984Z,81.18
2016-11-16T09:04:20.946Z,81.18
2016-11-16T09:05:20.910Z,80.71
2016-11-16T09:06:20.874Z,80.33
2016-11-16T09:07:20.833Z,80.42
2016-11-16T09:08:20.493Z,80.9
2016-11-16T09:09:20.760Z,80.99
2016-11-16T09:10:20.720Z,80.52
2016-11-16T09:11:20.684Z,80.61
2016-11-16T09:12:20.646Z,80.33
2016-11-16T09:13:20.635Z,80.42
2016-11-16T09:14:20.571Z,80.04
2016-11-16T09:15:20.232Z,79.41
2016-11-16T09:16:20.191Z,79.03
2016-11-16T09:17:20.460Z,78.65
2016-11-16T09:18:20.420Z,78.46
2016-11-16T09:19:20.381Z,78.46
2016-11-16T09:20:20.348Z,78.75
2016-11-16T09:21:20.307Z,78.08
2016-11-16T09:22:20.271Z,78.56
2016-11-16T09:23:19.933Z,78.56
2016-11-16T09:24:20.202Z,78.65
2016-11-16T09:25:20.160Z,78.65
2016-11-16T09:26:20.127Z,79.13
2016-11-16T09:27:20.092Z,78.94
2016-11-16T09:28:19.743Z,78.85
2016-11-16T09:29:20.093Z,79.03
2016-11-16T09:30:19.972Z,79.22
2016-11-16T09:31:19.633Z,79.22
2016-11-16T09:32:19.902Z,79.32
2016-11-16T09:33:19.862Z,79.13
2016-11-16T09:34:19.823Z,79.6
2016-11-16T09:35:19.787Z,79.41
2016-11-16T09:36:19.446Z,79.7
2016-11-16T09:37:19.711Z,80.18
2016-11-16T09:38:19.675Z,79.6
2016-11-16T09:39:19.335Z,79.6
2016-11-16T09:40:19.613Z,79.99
2016-11-16T09:41:19.566Z,79.8
2016-11-16T09:42:19.526Z,80.08
2016-11-16T09:43:19.491Z,79.8
2016-11-16T09:44:19.452Z,79.41
2016-11-16T09:45:19.420Z,79.8
2016-11-16T09:46:19.382Z,79.22
2016-11-16T09:47:19.341Z,79.41
2016-11-16T09:48:19.311Z,79.8
2016-11-16T09:49:19.270Z,79.22
2016-11-16T09:50:18.936Z,79.46
2016-11-16T09:51:19.194Z,79.83
2016-11-16T09:52:19.157Z,79.07
2016-11-16T09:53:19.118Z,78.78
2016-11-16T09:54:18.779Z,78.98
2016-11-16T09:55:19.047Z,79.07
2016-11-16T09:56:19.008Z,79.27
2016-11-16T09:57:18.675Z,79.07
2016-11-16T09:58:18.934Z,79.17
2016-11-16T09:59:18.598Z,79.17
2016-11-16T10:00:18.865Z,79.07
2016-11-16T10:01:18.824Z,78.78
2016-11-16T10:02:18.488Z,78.69
2016-11-16T10:03:18.449Z,78.41
2016-11-16T10:04:18.715Z,77.83
2016-11-16T10:05:18.682Z,78.12
2016-11-16T10:06:18.646Z,78.12
2016-11-16T10:07:18.603Z,77.93
2016-11-16T10:08:18.269Z,77.93
2016-11-16T10:09:18.231Z,78.12
2016-11-16T10:10:18.494Z,78.03
2016-11-16T10:11:18.158Z,78.31
2016-11-16T10:12:18.148Z,77.45
2016-11-16T10:13:18.387Z,77.4
2016-11-16T10:14:18.348Z,77.49
2016-11-16T10:15:18.312Z,77.49
2016-11-16T10:16:18.275Z,76.44
2016-11-16T10:17:17.938Z,76.35
2016-11-16T10:18:18.204Z,76.35
2016-11-16T10:19:18.165Z,75.87
2016-11-16T10:20:17.830Z,75.96
2016-11-16T10:21:17.796Z,76.2
2016-11-16T10:22:18.061Z,75.91
2016-11-16T10:23:18.022Z,76.01
2016-11-16T10:24:17.990Z,75.62
2016-11-16T10:25:17.950Z,75.24
2016-11-16T10:26:17.915Z,75.05
2016-11-16T10:27:17.879Z,74.96
2016-11-16T10:28:17.543Z,74.86
2016-11-16T10:29:17.806Z,74.19
2016-11-16T10:30:17.779Z,74.57
2016-11-16T10:31:17.434Z,73.43
2016-11-16T10:32:17.699Z,73.37
2016-11-16T10:33:17.666Z,73.56
2016-11-16T10:34:17.632Z,73.18
2016-11-16T10:35:17.594Z,72.99
2016-11-16T10:36:17.557Z,73.03
2016-11-16T10:37:17.520Z,72.13
2016-11-16T10:38:17.483Z,72.45
2016-11-16T10:39:17.455Z,71.78
2016-11-16T10:40:17.415Z,71.88
2016-11-16T10:41:17.382Z,71.69
2016-11-16T10:42:17.347Z,71.02
2016-11-16T10:43:17.009Z,70.83
2016-11-16T10:44:17.274Z,70.64
2016-11-16T10:45:17.240Z,70.54
2016-11-16T10:46:16.906Z,70.73
2016-11-16T10:47:16.870Z,70.83
2016-11-16T10:48:17.136Z,70.83
2016-11-16T10:49:17.101Z,71.21
2016-11-16T10:50:16.769Z,70.83
2016-11-16T10:51:16.732Z,70.83
2016-11-16T10:52:16.998Z,71.37
2016-11-16T10:53:16.967Z,71.46
2016-11-16T10:54:16.927Z,70.79
2016-11-16T10:55:16.892Z,71.46
2016-11-16T10:56:16.862Z,71.37
2016-11-16T10:57:16.825Z,71.75
2016-11-16T10:58:16.486Z,71.84
2016-11-16T10:59:16.754Z,72.23
2016-11-16T11:00:16.727Z,71.94
2016-11-16T11:01:16.383Z,71.81
2016-11-16T11:02:16.650Z,72.28
2016-11-16T11:03:16.310Z,72.09
2016-11-16T11:04:16.579Z,72.19
2016-11-16T11:05:16.540Z,72.23
2016-11-16T11:06:16.506Z,72.32
2016-11-16T11:07:16.472Z,72.09
2016-11-16T11:08:16.135Z,72.99
2016-11-16T11:09:16.403Z,72.86
2016-11-16T11:10:16.065Z,72.67
2016-11-16T11:11:16.328Z,72.89
2016-11-16T11:12:16.295Z,73.18
2016-11-16T11:13:15.958Z,72.71
2016-11-16T11:14:15.921Z,73.43
2016-11-16T11:15:16.198Z,72.96
2016-11-16T11:16:16.155Z,72.89
2016-11-16T11:17:16.118Z,72.96
2016-11-16T11:18:16.084Z,72.67
2016-11-16T11:19:16.044Z,72.76
2016-11-16T11:20:16.017Z,71.81
2016-11-16T11:21:15.977Z,71.81
2016-11-16T11:22:15.639Z,71.33
2016-11-16T11:23:15.908Z,71.04
2016-11-16T11:24:15.872Z,70.67
2016-11-16T11:25:15.834Z,70.86
2016-11-16T11:26:15.797Z,70.76
2016-11-16T11:27:15.765Z,70.95
2016-11-16T11:28:15.438Z,70.95
2016-11-16T11:29:15.395Z,71.23
2016-11-16T11:30:15.657Z,71.33
2016-11-16T11:31:15.619Z,71.3
2016-11-16T11:32:15.282Z,71.23
2016-11-16T11:33:15.547Z,71.77
2016-11-16T11:34:15.513Z,72.06
2016-11-16T11:35:15.476Z,72.16
2016-11-16T11:36:15.443Z,73.11
2016-11-16T11:37:15.403Z,73.58
2016-11-16T11:38:15.368Z,74.06
2016-11-16T11:39:15.333Z,74.06
2016-11-16T11:40:15.298Z,74.82
2016-11-16T11:41:14.956Z,75.01
2016-11-16T11:42:15.232Z,75.07
2016-11-16T11:43:15.186Z,75.84
2016-11-16T11:44:15.151Z,76.12
2016-11-16T11:45:15.117Z,76.12
2016-11-16T11:46:15.087Z,76.59
2016-11-16T11:47:15.043Z,76.31
2016-11-16T11:48:14.711Z,76.79
2016-11-16T11:49:14.975Z,77.36
2016-11-16T11:50:14.937Z,77.36
2016-11-16T11:51:14.898Z,77.55
2016-11-16T11:52:14.559Z,77.64
2016-11-16T11:53:14.824Z,77.64
2016-11-16T11:54:14.790Z,78.22
2016-11-16T11:55:14.757Z,78.12
2016-11-16T11:56:14.717Z,78.41
2016-11-16T11:57:14.680Z,78.69
2016-11-16T11:58:14.672Z,78.69
2016-11-16T11:59:14.303Z,78.78
2016-11-16T12:00:14.571Z,78.59
2016-11-16T12:01:14.530Z,78.5
2016-11-16T12:02:14.498Z,78.78
2016-11-16T12:03:14.169Z,79.36
2016-11-16T12:04:14.421Z,79.17
2016-11-16T12:05:14.383Z,78.88
2016-11-16T12:06:14.347Z,79.07
2016-11-16T12:07:14.318Z,79.27
2016-11-16T12:08:14.275Z,79.64
2016-11-16T12:09:14.237Z,78.98
2016-11-16T12:10:14.204Z,79.55
2016-11-16T12:11:14.168Z,79.83
2016-11-16T12:12:14.128Z,79.46
2016-11-16T12:13:14.090Z,80.02
2016-11-16T12:14:13.751Z,80.02
2016-11-16T12:15:14.018Z,80.41
2016-11-16T12:16:13.981Z,79.93
2016-11-16T12:17:13.942Z,80.02
2016-11-16T12:18:13.610Z,80.5
2016-11-16T12:19:13.570Z,80.12
2016-11-16T12:20:13.836Z,80.22
2016-11-16T12:21:13.826Z,80.5
2016-11-16T12:22:13.760Z,80.41
2016-11-16T12:23:13.420Z,80.5
2016-11-16T12:24:13.688Z,80.5
2016-11-16T12:25:13.650Z,80.5
2016-11-16T12:26:13.615Z,80.5
2016-11-16T12:27:13.577Z,80.5
2016-11-16T12:28:13.238Z,80.41
2016-11-16T12:29:13.503Z,80.22
2016-11-16T12:30:13.466Z,80.69
2016-11-16T12:31:13.429Z,80.69
2016-11-16T12:32:13.394Z,80.41
2016-11-16T12:33:13.356Z,80.5
2016-11-16T12:34:13.322Z,80.6
2016-11-16T12:35:13.284Z,80.12
2016-11-16T12:36:13.249Z,80.22
2016-11-16T12:37:12.909Z,80.12
2016-11-16T12:38:13.173Z,80.31
2016-11-16T12:39:13.134Z,80.22
2016-11-16T12:40:12.799Z,80.31
2016-11-16T12:41:12.756Z,80.12
2016-11-16T12:42:13.038Z,79.74
2016-11-16T12:43:12.991Z,80.02
2016-11-16T12:44:12.952Z,80.31
2016-11-16T12:45:12.611Z,80.22
2016-11-16T12:46:12.878Z,79.83
2016-11-16T12:47:12.841Z,79.64
2016-11-16T12:48:12.503Z,79.83
2016-11-16T12:49:12.465Z,79.36
2016-11-16T12:50:12.437Z,79.27
2016-11-16T12:51:12.693Z,79.27
2016-11-16T12:52:12.360Z,78.98
2016-11-16T12:53:12.637Z,78.92
2016-11-16T12:54:12.586Z,78.78